SWA3751 KABQ-KLBB
Flight info
| Callsign | SWA3751 |
|---|---|
| Flight time | 0h 47m |
| Altitude | 33000 |
| Route | DOOKK3 TXO LBB |
| Aircraft | B737/M-SDE2E3FGHIRWXY/LB1 |
Departure
| Time | 2026-04-27 03:58 |
|---|---|
| Airport | Albuquerque International Sunport (KABQ) |
Arrival
| Time | 2026-04-27 04:45 |
|---|---|
| Airport | Lubbock Preston Smith International Airport (KLBB) |
| Time | Latitude | Longitude | Altitude | Speed | Heading |
|---|---|---|---|---|---|
| 2026-04-27 03:45 | 35.04699 | -106.61588 | 5311 ft | 0 kts | 11° |
| 2026-04-27 03:50 | 35.04691 | -106.61590 | 5314 ft | 2 kts | 12° |
| 2026-04-27 03:51 | 35.04675 | -106.61594 | 5311 ft | 2 kts | 13° |
| 2026-04-27 03:51 | 35.04659 | -106.61598 | 5317 ft | 2 kts | 16° |
| 2026-04-27 03:51 | 35.04644 | -106.61605 | 5311 ft | 2 kts | 29° |
| 2026-04-27 03:51 | 35.04635 | -106.61613 | 5313 ft | 0 kts | 86° |
| 2026-04-27 03:53 | 35.04640 | -106.61553 | 5320 ft | 15 kts | 84° |
| 2026-04-27 03:53 | 35.04592 | -106.61413 | 5317 ft | 20 kts | 152° |
| 2026-04-27 03:54 | 35.04506 | -106.61379 | 5317 ft | 19 kts | 174° |
| 2026-04-27 03:54 | 35.04429 | -106.61276 | 5319 ft | 19 kts | 83° |
| 2026-04-27 03:54 | 35.04435 | -106.61124 | 5319 ft | 18 kts | 94° |
| 2026-04-27 03:54 | 35.04429 | -106.60950 | 5316 ft | 23 kts | 91° |
| 2026-04-27 03:55 | 35.04427 | -106.60742 | 5316 ft | 26 kts | 94° |
| 2026-04-27 03:55 | 35.04432 | -106.60504 | 5321 ft | 30 kts | 92° |
| 2026-04-27 03:55 | 35.04423 | -106.60242 | 5321 ft | 31 kts | 89° |
| 2026-04-27 03:55 | 35.04421 | -106.59989 | 5320 ft | 29 kts | 84° |
| 2026-04-27 03:56 | 35.04463 | -106.59751 | 5320 ft | 27 kts | 69° |
| 2026-04-27 03:56 | 35.04554 | -106.59556 | 5320 ft | 30 kts | 63° |
| 2026-04-27 03:56 | 35.04584 | -106.59287 | 5316 ft | 32 kts | 89° |
| 2026-04-27 03:56 | 35.04581 | -106.59027 | 5316 ft | 29 kts | 90° |
| 2026-04-27 03:57 | 35.04553 | -106.58836 | 5320 ft | 16 kts | 141° |
| 2026-04-27 03:57 | 35.04459 | -106.58823 | 5315 ft | 13 kts | 206° |
| 2026-04-27 03:57 | 35.04416 | -106.58940 | 5321 ft | 30 kts | 267° |
| 2026-04-27 03:57 | 35.04419 | -106.59491 | 5318 ft | 98 kts | 270° |
| 2026-04-27 03:58 | 35.04422 | -106.60565 | 5350 ft | 150 kts | 270° |
| 2026-04-27 03:58 | 35.04427 | -106.61882 | 5997 ft | 155 kts | 268° |
| 2026-04-27 03:58 | 35.04272 | -106.63224 | 6604 ft | 169 kts | 255° |
| 2026-04-27 03:58 | 35.03792 | -106.64598 | 7153 ft | 185 kts | 245° |
| 2026-04-27 03:59 | 35.03071 | -106.65971 | 7612 ft | 200 kts | 237° |
| 2026-04-27 03:59 | 35.02154 | -106.67345 | 8013 ft | 219 kts | 232° |
| 2026-04-27 03:59 | 35.00998 | -106.68768 | 8193 ft | 255 kts | 225° |
| 2026-04-27 03:59 | 34.99567 | -106.70167 | 8797 ft | 265 kts | 219° |
| 2026-04-27 04:00 | 34.97949 | -106.71300 | 9025 ft | 270 kts | 208° |
| 2026-04-27 04:00 | 34.96149 | -106.72025 | 9023 ft | 279 kts | 198° |
| 2026-04-27 04:00 | 34.94222 | -106.72379 | 9025 ft | 280 kts | 188° |
| 2026-04-27 04:00 | 34.92251 | -106.72242 | 8886 ft | 288 kts | 175° |
| 2026-04-27 04:01 | 34.90345 | -106.71457 | 9191 ft | 294 kts | 158° |
| 2026-04-27 04:01 | 34.88702 | -106.69933 | 10087 ft | 303 kts | 137° |
| 2026-04-27 04:01 | 34.87447 | -106.67813 | 10929 ft | 312 kts | 125° |
| 2026-04-27 04:01 | 34.86485 | -106.65437 | 11930 ft | 312 kts | 119° |
| 2026-04-27 04:02 | 34.85547 | -106.63004 | 12545 ft | 330 kts | 114° |
| 2026-04-27 04:02 | 34.84658 | -106.60341 | 12926 ft | 345 kts | 123° |
| 2026-04-27 04:02 | 34.83457 | -106.57783 | 13599 ft | 356 kts | 124° |
| 2026-04-27 04:02 | 34.82270 | -106.55066 | 14133 ft | 369 kts | 122° |
| 2026-04-27 04:03 | 34.81214 | -106.52174 | 14837 ft | 381 kts | 113° |
| 2026-04-27 04:03 | 34.80576 | -106.49002 | 15634 ft | 390 kts | 104° |
| 2026-04-27 04:03 | 34.80146 | -106.45760 | 16406 ft | 397 kts | 103° |
| 2026-04-27 04:03 | 34.79734 | -106.42415 | 17160 ft | 404 kts | 103° |
| 2026-04-27 04:04 | 34.79313 | -106.39003 | 17896 ft | 411 kts | 103° |
| 2026-04-27 04:04 | 34.78873 | -106.35535 | 18495 ft | 418 kts | 104° |
| 2026-04-27 04:04 | 34.78415 | -106.32020 | 19134 ft | 424 kts | 104° |
| 2026-04-27 04:04 | 34.77942 | -106.28445 | 19701 ft | 432 kts | 104° |
| 2026-04-27 04:05 | 34.77455 | -106.24809 | 20311 ft | 438 kts | 105° |
| 2026-04-27 04:05 | 34.76963 | -106.21132 | 20983 ft | 443 kts | 105° |
| 2026-04-27 04:05 | 34.76462 | -106.17409 | 21593 ft | 449 kts | 105° |
| 2026-04-27 04:05 | 34.75952 | -106.13632 | 22197 ft | 456 kts | 105° |
| 2026-04-27 04:06 | 34.75543 | -106.09778 | 22813 ft | 465 kts | 99° |
| 2026-04-27 04:06 | 34.75355 | -106.05817 | 23382 ft | 473 kts | 97° |
| 2026-04-27 04:06 | 34.75247 | -106.01793 | 23878 ft | 479 kts | 96° |
| 2026-04-27 04:07 | 34.75083 | -105.93627 | 24922 ft | 487 kts | 96° |
| 2026-04-27 04:07 | 34.74984 | -105.89487 | 25423 ft | 492 kts | 96° |
| 2026-04-27 04:07 | 34.74868 | -105.85313 | 25922 ft | 496 kts | 97° |
| 2026-04-27 04:07 | 34.74738 | -105.81105 | 26408 ft | 500 kts | 97° |
| 2026-04-27 04:08 | 34.74599 | -105.76861 | 26892 ft | 505 kts | 97° |
| 2026-04-27 04:08 | 34.74454 | -105.72580 | 27370 ft | 509 kts | 97° |
| 2026-04-27 04:08 | 34.74306 | -105.68261 | 27841 ft | 513 kts | 97° |
| 2026-04-27 04:08 | 34.74155 | -105.63906 | 28275 ft | 517 kts | 97° |
| 2026-04-27 04:09 | 34.74003 | -105.59524 | 28667 ft | 521 kts | 97° |
| 2026-04-27 04:09 | 34.73849 | -105.55113 | 29176 ft | 523 kts | 97° |
| 2026-04-27 04:09 | 34.73694 | -105.50679 | 29639 ft | 526 kts | 97° |
| 2026-04-27 04:09 | 34.73536 | -105.46221 | 30050 ft | 529 kts | 97° |
| 2026-04-27 04:10 | 34.73377 | -105.41756 | 30516 ft | 529 kts | 97° |
| 2026-04-27 04:10 | 34.73216 | -105.37291 | 30977 ft | 529 kts | 97° |
| 2026-04-27 04:10 | 34.73055 | -105.32881 | 31417 ft | 529 kts | 97° |
| 2026-04-27 04:10 | 34.72891 | -105.28419 | 31834 ft | 528 kts | 97° |
| 2026-04-27 04:11 | 34.72727 | -105.23992 | 32554 ft | 521 kts | 97° |
| 2026-04-27 04:11 | 34.72561 | -105.19573 | 32662 ft | 526 kts | 98° |
| 2026-04-27 04:11 | 34.72219 | -105.10703 | 32654 ft | 521 kts | 98° |
| 2026-04-27 04:12 | 34.71879 | -105.01951 | 32647 ft | 519 kts | 98° |
| 2026-04-27 04:12 | 34.71527 | -104.93166 | 32683 ft | 521 kts | 98° |
| 2026-04-27 04:13 | 34.71172 | -104.84377 | 32691 ft | 520 kts | 98° |
| 2026-04-27 04:13 | 34.70812 | -104.75618 | 32700 ft | 517 kts | 98° |
| 2026-04-27 04:14 | 34.70449 | -104.66920 | 32724 ft | 514 kts | 98° |
| 2026-04-27 04:14 | 34.69905 | -104.58292 | 32705 ft | 509 kts | 103° |
| 2026-04-27 04:15 | 34.68959 | -104.49788 | 32673 ft | 508 kts | 105° |
| 2026-04-27 04:15 | 34.67949 | -104.41293 | 32638 ft | 509 kts | 104° |
| 2026-04-27 04:16 | 34.66970 | -104.32763 | 32584 ft | 511 kts | 104° |
| 2026-04-27 04:16 | 34.66013 | -104.24198 | 32515 ft | 512 kts | 104° |
| 2026-04-27 04:17 | 34.65056 | -104.15630 | 32563 ft | 512 kts | 104° |
| 2026-04-27 04:17 | 34.64092 | -104.07074 | 32566 ft | 511 kts | 104° |
| 2026-04-27 04:18 | 34.63123 | -103.98537 | 32559 ft | 509 kts | 104° |
| 2026-04-27 04:18 | 34.62148 | -103.90025 | 32569 ft | 509 kts | 104° |
| 2026-04-27 04:19 | 34.61168 | -103.81520 | 32565 ft | 508 kts | 104° |
| 2026-04-27 04:19 | 34.60184 | -103.73028 | 32578 ft | 508 kts | 104° |
| 2026-04-27 04:20 | 34.59192 | -103.64531 | 32580 ft | 509 kts | 104° |
| 2026-04-27 04:20 | 34.58194 | -103.56025 | 32594 ft | 509 kts | 104° |
| 2026-04-27 04:21 | 34.57190 | -103.47516 | 32588 ft | 509 kts | 104° |
| 2026-04-27 04:21 | 34.56183 | -103.39030 | 32599 ft | 508 kts | 104° |
| 2026-04-27 04:22 | 34.55171 | -103.30556 | 32656 ft | 507 kts | 104° |
| 2026-04-27 04:22 | 34.54154 | -103.22103 | 32634 ft | 506 kts | 104° |
| 2026-04-27 04:23 | 34.53642 | -103.17865 | 32130 ft | 510 kts | 104° |
| 2026-04-27 04:23 | 34.53126 | -103.13614 | 31520 ft | 509 kts | 104° |
| 2026-04-27 04:23 | 34.52617 | -103.09405 | 31120 ft | 502 kts | 104° |
| 2026-04-27 04:23 | 34.52111 | -103.05233 | 30639 ft | 498 kts | 104° |
| 2026-04-27 04:24 | 34.51607 | -103.01099 | 30184 ft | 494 kts | 104° |
| 2026-04-27 04:24 | 34.51104 | -102.96998 | 29731 ft | 490 kts | 104° |
| 2026-04-27 04:24 | 34.50604 | -102.92925 | 29202 ft | 486 kts | 104° |
| 2026-04-27 04:24 | 34.50053 | -102.88965 | 28677 ft | 478 kts | 110° |
| 2026-04-27 04:25 | 34.48972 | -102.85236 | 28235 ft | 461 kts | 124° |
| 2026-04-27 04:25 | 34.47415 | -102.81922 | 27871 ft | 443 kts | 134° |
| 2026-04-27 04:25 | 34.45519 | -102.79085 | 27432 ft | 425 kts | 146° |
| 2026-04-27 04:25 | 34.43422 | -102.76610 | 27046 ft | 419 kts | 146° |
| 2026-04-27 04:26 | 34.41322 | -102.74173 | 26555 ft | 417 kts | 146° |
| 2026-04-27 04:26 | 34.39232 | -102.71750 | 26078 ft | 415 kts | 146° |
| 2026-04-27 04:26 | 34.37153 | -102.69328 | 25602 ft | 414 kts | 146° |
| 2026-04-27 04:26 | 34.35088 | -102.66911 | 25124 ft | 413 kts | 146° |
| 2026-04-27 04:27 | 34.33032 | -102.64494 | 24620 ft | 412 kts | 145° |
| 2026-04-27 04:27 | 34.30982 | -102.62080 | 24158 ft | 410 kts | 145° |
| 2026-04-27 04:27 | 34.28942 | -102.59674 | 23673 ft | 410 kts | 145° |
| 2026-04-27 04:27 | 34.26904 | -102.57271 | 23202 ft | 409 kts | 145° |
| 2026-04-27 04:28 | 34.24868 | -102.54872 | 22644 ft | 408 kts | 145° |
| 2026-04-27 04:28 | 34.22838 | -102.52479 | 22143 ft | 406 kts | 144° |
| 2026-04-27 04:28 | 34.20821 | -102.50103 | 21653 ft | 404 kts | 144° |
| 2026-04-27 04:28 | 34.18815 | -102.47741 | 21164 ft | 402 kts | 144° |
| 2026-04-27 04:29 | 34.16817 | -102.45392 | 20690 ft | 399 kts | 144° |
| 2026-04-27 04:29 | 34.14832 | -102.43060 | 20218 ft | 398 kts | 144° |
| 2026-04-27 04:29 | 34.12854 | -102.40738 | 19739 ft | 396 kts | 144° |
| 2026-04-27 04:29 | 34.10882 | -102.38427 | 19265 ft | 394 kts | 143° |
| 2026-04-27 04:30 | 34.08922 | -102.36130 | 18761 ft | 392 kts | 143° |
| 2026-04-27 04:30 | 34.06970 | -102.33844 | 18302 ft | 390 kts | 143° |
| 2026-04-27 04:30 | 34.05025 | -102.31567 | 17800 ft | 389 kts | 143° |
| 2026-04-27 04:30 | 34.03086 | -102.29298 | 17270 ft | 387 kts | 143° |
| 2026-04-27 04:31 | 34.01159 | -102.27045 | 16766 ft | 385 kts | 143° |
| 2026-04-27 04:31 | 33.99245 | -102.24807 | 16280 ft | 382 kts | 143° |
| 2026-04-27 04:31 | 33.97344 | -102.22587 | 15804 ft | 379 kts | 143° |
| 2026-04-27 04:31 | 33.95465 | -102.20392 | 15470 ft | 372 kts | 143° |
| 2026-04-27 04:32 | 33.93646 | -102.18268 | 15078 ft | 367 kts | 143° |
| 2026-04-27 04:32 | 33.91795 | -102.16111 | 14635 ft | 364 kts | 143° |
| 2026-04-27 04:32 | 33.90007 | -102.14030 | 14194 ft | 361 kts | 143° |
| 2026-04-27 04:32 | 33.88207 | -102.11937 | 13769 ft | 358 kts | 144° |
| 2026-04-27 04:33 | 33.86420 | -102.09860 | 13273 ft | 356 kts | 143° |
| 2026-04-27 04:33 | 33.84645 | -102.07798 | 12793 ft | 353 kts | 143° |
| 2026-04-27 04:33 | 33.82887 | -102.05755 | 12335 ft | 348 kts | 143° |
| 2026-04-27 04:33 | 33.81164 | -102.03750 | 11773 ft | 343 kts | 143° |
| 2026-04-27 04:34 | 33.79426 | -102.01740 | 10960 ft | 347 kts | 143° |
| 2026-04-27 04:34 | 33.77747 | -101.99789 | 10748 ft | 326 kts | 143° |
| 2026-04-27 04:34 | 33.76156 | -101.97937 | 10471 ft | 311 kts | 143° |
| 2026-04-27 04:34 | 33.74610 | -101.96147 | 10254 ft | 307 kts | 143° |
| 2026-04-27 04:35 | 33.73105 | -101.94405 | 10154 ft | 295 kts | 144° |
| 2026-04-27 04:35 | 33.71655 | -101.92725 | 10018 ft | 284 kts | 144° |
| 2026-04-27 04:35 | 33.70290 | -101.91017 | 9746 ft | 289 kts | 131° |
| 2026-04-27 04:35 | 33.69536 | -101.88780 | 9596 ft | 296 kts | 103° |
| 2026-04-27 04:36 | 33.69486 | -101.86261 | 9332 ft | 308 kts | 91° |
| 2026-04-27 04:36 | 33.69613 | -101.83649 | 9053 ft | 317 kts | 90° |
| 2026-04-27 04:36 | 33.69757 | -101.80976 | 8766 ft | 324 kts | 89° |
| 2026-04-27 04:36 | 33.69901 | -101.78265 | 8468 ft | 325 kts | 89° |
| 2026-04-27 04:37 | 33.70041 | -101.75564 | 8176 ft | 323 kts | 89° |
| 2026-04-27 04:37 | 33.70177 | -101.72888 | 7871 ft | 320 kts | 89° |
| 2026-04-27 04:37 | 33.70311 | -101.70239 | 7587 ft | 318 kts | 89° |
| 2026-04-27 04:37 | 33.70438 | -101.67589 | 7281 ft | 317 kts | 89° |
| 2026-04-27 04:38 | 33.70552 | -101.64950 | 7010 ft | 315 kts | 89° |
| 2026-04-27 04:38 | 33.70656 | -101.62325 | 6715 ft | 314 kts | 89° |
| 2026-04-27 04:38 | 33.70668 | -101.59706 | 6387 ft | 313 kts | 96° |
| 2026-04-27 04:38 | 33.70196 | -101.57232 | 6058 ft | 296 kts | 122° |
| 2026-04-27 04:39 | 33.68996 | -101.55391 | 5718 ft | 268 kts | 153° |
| 2026-04-27 04:39 | 33.67404 | -101.54573 | 5398 ft | 236 kts | 185° |
| 2026-04-27 04:39 | 33.65898 | -101.54901 | 5041 ft | 214 kts | 214° |
| 2026-04-27 04:39 | 33.64940 | -101.56145 | 4725 ft | 209 kts | 245° |
| 2026-04-27 04:40 | 33.64823 | -101.57870 | 4483 ft | 213 kts | 282° |
| 2026-04-27 04:40 | 33.65487 | -101.59446 | 4425 ft | 200 kts | 284° |
| 2026-04-27 04:40 | 33.66016 | -101.60917 | 4460 ft | 195 kts | 287° |
| 2026-04-27 04:40 | 33.66465 | -101.62426 | 4503 ft | 190 kts | 275° |
| 2026-04-27 04:41 | 33.66552 | -101.63962 | 4535 ft | 177 kts | 265° |
| 2026-04-27 04:41 | 33.66442 | -101.65345 | 4478 ft | 160 kts | 259° |
| 2026-04-27 04:41 | 33.66190 | -101.66624 | 4350 ft | 154 kts | 261° |
| 2026-04-27 04:41 | 33.66135 | -101.67868 | 4415 ft | 143 kts | 272° |
| 2026-04-27 04:42 | 33.66296 | -101.68967 | 4250 ft | 128 kts | 276° |
| 2026-04-27 04:42 | 33.66352 | -101.70031 | 4119 ft | 132 kts | 265° |
| 2026-04-27 04:42 | 33.66328 | -101.71113 | 4094 ft | 124 kts | 264° |
| 2026-04-27 04:42 | 33.66292 | -101.72145 | 4083 ft | 126 kts | 265° |
| 2026-04-27 04:43 | 33.66263 | -101.72860 | 4080 ft | 132 kts | 266° |
| 2026-04-27 04:43 | 33.66249 | -101.73979 | 4122 ft | 135 kts | 267° |
| 2026-04-27 04:43 | 33.66254 | -101.75113 | 4059 ft | 139 kts | 268° |
| 2026-04-27 04:43 | 33.66268 | -101.76316 | 3919 ft | 146 kts | 269° |
| 2026-04-27 04:44 | 33.66259 | -101.77530 | 3696 ft | 149 kts | 268° |
| 2026-04-27 04:44 | 33.66237 | -101.78793 | 3461 ft | 151 kts | 269° |
| 2026-04-27 04:44 | 33.66239 | -101.80033 | 3280 ft | 144 kts | 268° |
| 2026-04-27 04:44 | 33.66229 | -101.81111 | 3261 ft | 109 kts | 270° |
| 2026-04-27 04:45 | 33.66224 | -101.81827 | 3265 ft | 53 kts | 269° |
| 2026-04-27 04:45 | 33.66224 | -101.82176 | 3267 ft | 31 kts | 268° |
| 2026-04-27 04:45 | 33.66107 | -101.82269 | 3266 ft | 13 kts | 179° |
| 2026-04-27 04:45 | 33.66053 | -101.82264 | 3266 ft | 5 kts | 189° |
| 2026-04-27 04:46 | 33.66039 | -101.82296 | 3266 ft | 11 kts | 252° |
| 2026-04-27 04:46 | 33.65972 | -101.82378 | 3265 ft | 19 kts | 184° |
| 2026-04-27 04:46 | 33.65846 | -101.82329 | 3263 ft | 19 kts | 150° |
| 2026-04-27 04:46 | 33.65733 | -101.82358 | 3261 ft | 18 kts | 221° |
| 2026-04-27 04:47 | 33.65621 | -101.82422 | 3262 ft | 15 kts | 194° |
| 2026-04-27 04:47 | 33.65559 | -101.82428 | 3263 ft | 8 kts | 156° |
| 2026-04-27 04:47 | 33.65532 | -101.82374 | 3262 ft | 7 kts | 109° |
| 2026-04-27 04:47 | 33.65527 | -101.82358 | 3264 ft | 0 kts | 107° |
| 2026-04-27 04:48 | 33.65527 | -101.82356 | 3264 ft | 0 kts | 107° |